Time;durP1;ratioP1;P1;durP2;ratioP2;P2;SDS_P1;SDS_P2;PMS_P1;PMS_P2;Temp;Humidity;BMP_temperature;BMP_pressure;BME280_temperature;BME280_humidity;BME280_pressure;Samples;Min_cycle;Max_cycle;Signal;HPM_P1;HPM_P2
2022/07/10 00:00:41;;;;;;;4.30;1.50;;;16.60;99.90;;;;;;5015990;28;20204;-83
2022/07/10 00:03:09;;;;;;;2.25;1.23;;;16.50;99.90;;;;;;5019012;28;20195;-83
2022/07/10 00:05:37;;;;;;;1.75;1.00;;;16.50;99.90;;;;;;5007739;28;20239;-83
2022/07/10 00:08:04;;;;;;;3.03;1.08;;;16.60;99.90;;;;;;5017118;28;20214;-83
2022/07/10 00:10:34;;;;;;;3.63;1.20;;;16.40;99.90;;;;;;5013665;28;20663;-83
2022/07/10 00:13:01;;;;;;;3.28;1.30;;;16.40;99.90;;;;;;5015163;28;20224;-83
2022/07/10 00:15:31;;;;;;;3.40;0.82;;;16.20;99.90;;;;;;5017002;28;20226;-83
2022/07/10 00:17:59;;;;;;;3.88;1.45;;;16.30;99.90;;;;;;5007481;28;20206;-83
2022/07/10 00:20:26;;;;;;;3.17;0.93;;;16.30;99.90;;;;;;5018288;28;20208;-83
2022/07/10 00:22:54;;;;;;;4.20;1.40;;;16.30;99.90;;;;;;5013373;28;20197;-83
2022/07/10 00:25:21;;;;;;;5.18;1.10;;;16.30;99.90;;;;;;5019891;28;20209;-83
2022/07/10 00:27:50;;;;;;;2.25;1.17;;;16.30;99.90;;;;;;5017183;28;20207;-83
2022/07/10 00:30:18;;;;;;;3.35;1.88;;;16.30;99.90;;;;;;5017191;28;20210;-82
2022/07/10 00:32:45;;;;;;;5.03;1.00;;;16.30;99.90;;;;;;5007912;28;20208;-82
2022/07/10 00:35:13;;;;;;;4.13;1.38;;;16.40;99.90;;;;;;4994283;28;20225;-82
2022/07/10 00:37:40;;;;;;;3.08;1.38;;;16.40;99.90;;;;;;5015837;28;20207;-82
2022/07/10 00:40:08;;;;;;;6.68;1.50;;;16.30;99.90;;;;;;5024941;28;20204;-82
2022/07/10 00:42:37;;;;;;;4.07;1.40;;;16.30;99.90;;;;;;5004894;28;20196;-82
2022/07/10 00:45:07;;;;;;;2.70;1.20;;;16.40;99.90;;;;;;5007566;28;20228;-82
2022/07/10 00:47:34;;;;;;;3.97;1.60;;;16.30;99.90;;;;;;5006460;28;20206;-82
2022/07/10 00:50:02;;;;;;;5.32;1.30;;;16.50;99.90;;;;;;5010541;28;20197;-83
2022/07/10 00:52:30;;;;;;;2.70;1.20;;;16.50;99.90;;;;;;5009851;28;20220;-83
2022/07/10 00:54:58;;;;;;;3.10;1.17;;;16.30;99.90;;;;;;4999476;28;20232;-83
2022/07/10 00:57:26;;;;;;;4.25;1.45;;;16.30;99.90;;;;;;5020433;28;20192;-83
2022/07/10 00:59:54;;;;;;;2.83;1.27;;;16.30;99.90;;;;;;5026123;28;20203;-83
2022/07/10 01:02:23;;;;;;;7.63;1.48;;;16.40;99.90;;;;;;5015826;28;20206;-83
2022/07/10 01:04:51;;;;;;;1.80;1.30;;;16.40;99.90;;;;;;5008169;28;20220;-82
2022/07/10 01:07:19;;;;;;;4.40;0.90;;;16.30;99.90;;;;;;5021555;28;20206;-82
2022/07/10 01:09:46;;;;;;;2.92;1.13;;;16.40;99.90;;;;;;5015404;28;20211;-82
2022/07/10 01:12:14;;;;;;;4.30;1.20;;;16.30;99.90;;;;;;5015382;28;20228;-82
2022/07/10 01:14:42;;;;;;;4.20;1.00;;;16.20;99.90;;;;;;5021552;28;20700;-82
2022/07/10 01:17:10;;;;;;;3.30;1.20;;;16.30;99.90;;;;;;5016961;28;20218;-82
2022/07/10 01:19:39;;;;;;;3.58;1.10;;;16.10;99.90;;;;;;5014952;28;20201;-82
2022/07/10 01:22:08;;;;;;;4.07;1.50;;;16.10;99.90;;;;;;5015050;28;20196;-82
2022/07/10 01:24:36;;;;;;;2.80;1.35;;;16.20;99.90;;;;;;5017185;28;20217;-82
2022/07/10 01:27:04;;;;;;;2.10;1.13;;;16.20;99.90;;;;;;5015992;28;20249;-82
2022/07/10 01:29:32;;;;;;;2.67;1.17;;;16.10;99.90;;;;;;5023977;28;20195;-82
2022/07/10 01:32:00;;;;;;;3.85;1.00;;;16.10;99.90;;;;;;5019315;28;20211;-82
2022/07/10 01:34:28;;;;;;;4.00;1.50;;;16.00;99.90;;;;;;5019817;28;20219;-82
2022/07/10 01:36:56;;;;;;;4.32;1.33;;;16.00;99.90;;;;;;5013612;28;20208;-82
2022/07/10 01:39:24;;;;;;;2.63;1.25;;;15.90;99.90;;;;;;5007692;28;20192;-82
2022/07/10 01:41:52;;;;;;;3.22;1.13;;;15.90;99.90;;;;;;5015890;28;20204;-82
2022/07/10 01:44:19;;;;;;;3.65;1.65;;;16.00;99.90;;;;;;4990386;28;20220;-82
2022/07/10 01:46:48;;;;;;;3.30;1.20;;;15.90;99.90;;;;;;5015532;28;20204;-82
2022/07/10 01:49:16;;;;;;;4.63;1.25;;;15.90;99.90;;;;;;5009892;28;20209;-82
2022/07/10 01:51:43;;;;;;;3.67;1.13;;;15.90;99.90;;;;;;5008519;28;20200;-82
2022/07/10 01:54:11;;;;;;;5.65;1.58;;;15.90;99.90;;;;;;5015768;28;20231;-82
2022/07/10 01:56:40;;;;;;;4.93;1.38;;;16.00;99.90;;;;;;5011846;28;20659;-82
2022/07/10 01:59:07;;;;;;;1.75;1.20;;;16.10;99.90;;;;;;5008007;28;20202;-82
2022/07/10 02:01:36;;;;;;;4.75;1.50;;;16.20;99.90;;;;;;5014992;28;20204;-82
2022/07/10 02:06:49;;;;;;;3.17;1.20;;;15.90;99.90;;;;;;5009664;28;20188;-82
2022/07/10 02:09:16;;;;;;;2.17;1.58;;;15.90;99.90;;;;;;5014940;28;20204;-82
2022/07/10 02:11:45;;;;;;;2.75;1.55;;;16.00;99.90;;;;;;5015861;28;20200;-82
2022/07/10 02:14:13;;;;;;;3.45;0.95;;;15.90;99.90;;;;;;5005438;28;20228;-82
2022/07/10 02:16:40;;;;;;;4.38;1.17;;;15.90;99.90;;;;;;5019423;28;20196;-82
2022/07/10 02:19:08;;;;;;;3.00;1.25;;;15.90;99.90;;;;;;5006993;28;20208;-82
2022/07/10 02:21:35;;;;;;;3.58;1.27;;;15.80;99.90;;;;;;5019273;28;20196;-82
2022/07/10 02:24:03;;;;;;;3.13;1.10;;;15.80;99.90;;;;;;5011781;28;20230;-82
2022/07/10 02:26:30;;;;;;;4.78;1.23;;;15.70;99.90;;;;;;5016286;28;20196;-83
2022/07/10 02:28:59;;;;;;;4.10;1.42;;;15.70;99.90;;;;;;5006526;28;20210;-83
2022/07/10 02:31:27;;;;;;;4.30;1.77;;;15.70;99.90;;;;;;5015817;28;20201;-82
2022/07/10 02:33:54;;;;;;;3.20;1.40;;;15.70;99.90;;;;;;4990345;28;20228;-82
2022/07/10 02:36:24;;;;;;;2.17;1.15;;;15.50;99.90;;;;;;5018458;28;20199;-82
2022/07/10 02:38:51;;;;;;;3.42;1.45;;;15.60;99.90;;;;;;5003995;28;20204;-82
2022/07/10 02:41:19;;;;;;;4.72;1.45;;;15.70;99.90;;;;;;5017064;28;20212;-83
2022/07/10 02:43:46;;;;;;;3.90;1.55;;;15.60;99.90;;;;;;5005100;28;20197;-82
2022/07/10 02:46:15;;;;;;;4.22;1.40;;;15.50;99.90;;;;;;5016715;28;20202;-82
2022/07/10 02:48:43;;;;;;;2.70;1.40;;;15.70;99.90;;;;;;5024029;28;20200;-82
2022/07/10 02:51:10;;;;;;;5.47;1.48;;;15.70;99.90;;;;;;5025843;28;20180;-82
2022/07/10 02:53:39;;;;;;;4.20;1.90;;;15.60;99.90;;;;;;5017159;28;20205;-82
2022/07/10 02:56:07;;;;;;;1.42;1.13;;;15.60;99.90;;;;;;5019630;28;20202;-82
2022/07/10 02:58:34;;;;;;;3.47;1.30;;;15.70;99.90;;;;;;5017125;28;20206;-82
2022/07/10 03:01:02;;;;;;;2.88;1.20;;;15.70;99.90;;;;;;5016166;28;20212;-82
2022/07/10 03:03:31;;;;;;;2.40;1.40;;;15.70;99.90;;;;;;5013575;28;20188;-82
2022/07/10 03:05:59;;;;;;;4.88;1.70;;;15.60;99.90;;;;;;5022783;28;20219;-82
2022/07/10 03:08:26;;;;;;;2.63;1.48;;;15.70;99.90;;;;;;5019097;28;20196;-82
2022/07/10 03:10:54;;;;;;;3.35;1.45;;;15.70;99.90;;;;;;5018725;28;20207;-82
2022/07/10 03:13:22;;;;;;;3.30;1.40;;;15.70;99.90;;;;;;5016362;28;20224;-82
2022/07/10 03:15:49;;;;;;;5.72;1.55;;;15.60;99.90;;;;;;5019424;28;20223;-82
2022/07/10 03:18:16;;;;;;;5.82;1.65;;;15.60;99.90;;;;;;5006908;28;20200;-83
2022/07/10 03:20:45;;;;;;;3.35;1.55;;;15.70;99.90;;;;;;5011615;28;20202;-82
2022/07/10 03:23:13;;;;;;;4.78;1.23;;;15.60;99.90;;;;;;5021662;28;20207;-82
2022/07/10 03:25:41;;;;;;;4.00;1.50;;;15.60;99.90;;;;;;5020099;28;20222;-83
2022/07/10 03:28:08;;;;;;;3.65;1.30;;;15.60;99.90;;;;;;5013360;28;20207;-83
2022/07/10 03:30:36;;;;;;;4.68;1.30;;;15.60;99.90;;;;;;5016055;28;20201;-83
2022/07/10 03:33:03;;;;;;;5.53;1.40;;;15.70;99.90;;;;;;5005215;28;20225;-83
2022/07/10 03:35:32;;;;;;;5.72;1.45;;;15.60;99.90;;;;;;5021653;28;20227;-82
2022/07/10 03:38:01;;;;;;;3.95;1.58;;;15.60;99.90;;;;;;5007730;28;20188;-82
2022/07/10 03:40:28;;;;;;;2.85;1.13;;;15.60;99.90;;;;;;5030039;28;20207;-82
2022/07/10 03:42:56;;;;;;;5.30;1.48;;;15.60;99.90;;;;;;5022801;28;20207;-82
2022/07/10 03:45:23;;;;;;;2.97;1.00;;;15.60;99.90;;;;;;5018739;28;20226;-82
2022/07/10 03:47:51;;;;;;;6.90;1.70;;;15.60;99.90;;;;;;4991868;28;20207;-82
2022/07/10 03:50:18;;;;;;;3.50;1.50;;;15.50;99.90;;;;;;5014814;28;20203;-82
2022/07/10 03:52:46;;;;;;;4.72;1.52;;;15.50;99.90;;;;;;5013923;28;20231;-82
2022/07/10 03:55:17;;;;;;;7.65;1.40;;;15.60;99.90;;;;;;5021927;28;20219;-82
2022/07/10 03:57:53;;;;;;;2.65;1.05;;;15.60;99.90;;;;;;5003139;28;20205;-82
2022/07/10 04:00:22;;;;;;;3.90;1.38;;;15.50;99.90;;;;;;5013131;28;20203;-82
2022/07/10 04:02:56;;;;;;;4.68;1.40;;;15.50;99.90;;;;;;5013818;28;20200;-82
2022/07/10 04:05:23;;;;;;;5.13;1.40;;;15.50;99.90;;;;;;5013233;28;20216;-82
2022/07/10 04:07:51;;;;;;;4.97;1.40;;;15.40;99.90;;;;;;5015270;28;20211;-82
2022/07/10 04:10:20;;;;;;;4.50;1.60;;;15.50;99.90;;;;;;5017596;28;20204;-82
2022/07/10 04:12:48;;;;;;;4.95;1.20;;;15.40;99.90;;;;;;5004385;28;20232;-82
2022/07/10 04:15:16;;;;;;;5.20;1.50;;;15.40;99.90;;;;;;5016188;28;20224;-82
2022/07/10 04:17:44;;;;;;;4.65;1.60;;;15.40;99.90;;;;;;5022068;28;20216;-82
2022/07/10 04:20:12;;;;;;;2.40;1.00;;;15.30;99.90;;;;;;5016733;28;20682;-82
2022/07/10 04:22:39;;;;;;;5.70;2.20;;;15.30;99.90;;;;;;5016133;28;20222;-82
2022/07/10 04:25:08;;;;;;;5.88;1.58;;;15.30;99.90;;;;;;5014848;28;20219;-82
2022/07/10 04:27:37;;;;;;;4.15;1.35;;;15.30;99.90;;;;;;5016769;28;20193;-82
2022/07/10 04:30:06;;;;;;;4.72;1.38;;;15.40;99.90;;;;;;5009680;28;20188;-82
2022/07/10 04:32:34;;;;;;;6.05;1.63;;;15.40;99.90;;;;;;4988679;28;20204;-82
2022/07/10 04:35:01;;;;;;;4.20;1.15;;;15.40;99.90;;;;;;5015742;28;20232;-81
2022/07/10 04:37:29;;;;;;;4.30;1.58;;;15.30;99.90;;;;;;5019420;28;20200;-81
2022/07/10 04:39:57;;;;;;;4.85;1.70;;;15.40;99.90;;;;;;5012677;28;20205;-82
2022/07/10 04:42:25;;;;;;;5.63;1.50;;;15.30;99.90;;;;;;5024834;28;20196;-82
2022/07/10 04:44:54;;;;;;;4.13;1.10;;;15.40;99.90;;;;;;5014887;28;20219;-81
2022/07/10 04:47:22;;;;;;;6.03;1.25;;;15.40;99.90;;;;;;5015098;28;20214;-81
2022/07/10 04:49:49;;;;;;;4.68;1.48;;;15.40;99.90;;;;;;5016161;28;20200;-81
2022/07/10 04:52:17;;;;;;;5.72;1.20;;;15.40;99.90;;;;;;5013402;28;20204;-81
2022/07/10 04:54:44;;;;;;;5.85;1.73;;;15.40;99.90;;;;;;5005901;28;20227;-81
2022/07/10 04:57:12;;;;;;;4.07;1.52;;;15.40;99.90;;;;;;5015183;28;20210;-81
2022/07/10 04:59:39;;;;;;;6.57;1.75;;;15.40;99.90;;;;;;4994505;28;20689;-81
2022/07/10 05:02:08;;;;;;;7.47;1.48;;;15.40;99.90;;;;;;5004086;28;20206;-81
2022/07/10 05:04:36;;;;;;;4.00;1.52;;;15.40;99.90;;;;;;5009653;28;20211;-81
2022/07/10 05:07:04;;;;;;;8.20;1.88;;;15.40;99.90;;;;;;5011028;28;20215;-81
2022/07/10 05:09:31;;;;;;;6.38;1.67;;;15.30;99.90;;;;;;5020554;28;20675;-81
2022/07/10 05:11:59;;;;;;;5.38;1.38;;;15.40;99.90;;;;;;4998909;28;20208;-81
2022/07/10 05:14:26;;;;;;;7.70;1.88;;;15.30;99.90;;;;;;5008354;28;20228;-81
2022/07/10 05:16:54;;;;;;;5.43;1.42;;;15.30;99.90;;;;;;5019768;28;20211;-82
2022/07/10 05:19:23;;;;;;;7.60;1.27;;;15.20;99.90;;;;;;5008725;28;20200;-81
2022/07/10 05:21:50;;;;;;;4.18;1.35;;;15.20;99.90;;;;;;5001109;28;20192;-81
2022/07/10 05:24:18;;;;;;;7.53;1.55;;;15.20;99.90;;;;;;5013284;28;20728;-81
2022/07/10 05:26:45;;;;;;;2.63;1.25;;;15.20;99.90;;;;;;5013679;28;20222;-81
2022/07/10 05:29:13;;;;;;;3.35;1.60;;;15.30;99.90;;;;;;5005529;28;20203;-81
2022/07/10 05:31:40;;;;;;;4.07;1.42;;;15.20;99.90;;;;;;5019940;28;20204;-81
2022/07/10 05:34:08;;;;;;;5.18;1.50;;;15.30;99.90;;;;;;5014804;28;20232;-81
2022/07/10 05:36:37;;;;;;;4.28;1.63;;;15.20;99.90;;;;;;5018563;28;20214;-81
2022/07/10 05:39:04;;;;;;;4.47;1.75;;;15.40;99.90;;;;;;5013162;28;20200;-81
2022/07/10 05:41:32;;;;;;;6.93;1.27;;;15.50;99.90;;;;;;5014300;28;20192;-82
2022/07/10 05:44:00;;;;;;;4.78;1.30;;;15.40;99.90;;;;;;5018202;28;20220;-81
2022/07/10 05:46:27;;;;;;;5.35;1.80;;;15.60;99.90;;;;;;5018940;28;20203;-81
2022/07/10 05:48:55;;;;;;;5.00;1.45;;;15.70;99.90;;;;;;5010568;28;20210;-81
2022/07/10 05:51:23;;;;;;;4.22;1.60;;;15.70;99.90;;;;;;5017096;28;20202;-81
2022/07/10 05:53:52;;;;;;;4.00;1.40;;;15.80;99.90;;;;;;5013336;28;20220;-82
2022/07/10 05:56:19;;;;;;;6.63;1.50;;;16.00;99.90;;;;;;5001022;28;20212;-82
2022/07/10 05:58:47;;;;;;;6.85;2.15;;;15.90;99.90;;;;;;5003160;28;20210;-81
2022/07/10 06:01:14;;;;;;;5.93;1.85;;;15.90;99.90;;;;;;5003621;28;20215;-81
2022/07/10 06:03:42;;;;;;;6.78;1.55;;;16.00;99.90;;;;;;5010749;28;20203;-81
2022/07/10 06:06:10;;;;;;;3.42;1.40;;;16.00;99.90;;;;;;5013227;28;20205;-82
2022/07/10 06:08:37;;;;;;;6.10;1.67;;;16.10;99.90;;;;;;5004633;28;20202;-82
2022/07/10 06:11:06;;;;;;;5.25;2.05;;;16.20;99.90;;;;;;5009764;28;20557;-82
2022/07/10 06:13:34;;;;;;;4.30;1.30;;;16.20;99.90;;;;;;5010760;28;20272;-81
2022/07/10 06:16:01;;;;;;;8.02;1.83;;;16.30;99.90;;;;;;5017054;28;20204;-82
2022/07/10 06:18:29;;;;;;;4.22;1.50;;;16.30;99.90;;;;;;5030266;28;20219;-82
2022/07/10 06:20:56;;;;;;;3.50;1.17;;;16.50;99.90;;;;;;5020239;28;20185;-81
2022/07/10 06:23:24;;;;;;;5.22;1.52;;;16.40;99.90;;;;;;5011332;28;20214;-81
2022/07/10 06:25:51;;;;;;;3.65;1.52;;;16.40;99.90;;;;;;5019663;28;20208;-82
2022/07/10 06:28:20;;;;;;;3.13;1.75;;;16.30;99.90;;;;;;5012145;28;20196;-81
2022/07/10 06:30:48;;;;;;;4.28;1.67;;;16.30;99.90;;;;;;5009731;28;20204;-81
2022/07/10 06:33:15;;;;;;;3.97;1.40;;;16.20;99.90;;;;;;5008059;28;20214;-81
2022/07/10 06:35:43;;;;;;;3.15;1.30;;;16.30;99.90;;;;;;5019220;28;20220;-82
2022/07/10 06:38:10;;;;;;;4.28;1.30;;;16.30;99.90;;;;;;5020921;28;20198;-81
2022/07/10 06:40:38;;;;;;;4.57;1.27;;;16.40;99.90;;;;;;5029207;28;20214;-81
2022/07/10 06:43:06;;;;;;;5.10;1.25;;;16.40;99.90;;;;;;5013971;28;20200;-82
2022/07/10 06:45:35;;;;;;;3.17;1.20;;;16.40;99.90;;;;;;5016380;28;20216;-81
2022/07/10 06:48:02;;;;;;;5.07;1.48;;;16.30;99.90;;;;;;5014434;28;20192;-81
2022/07/10 06:50:32;;;;;;;5.88;2.50;;;16.10;99.90;;;;;;5017077;28;20207;-81
2022/07/10 06:52:59;;;;;;;6.72;1.55;;;16.20;99.90;;;;;;5019179;28;20202;-82
2022/07/10 06:55:27;;;;;;;2.38;1.27;;;16.20;99.90;;;;;;5011978;28;20234;-82
2022/07/10 06:57:55;;;;;;;2.97;1.38;;;16.10;99.90;;;;;;5022265;28;20203;-82
2022/07/10 07:00:23;;;;;;;5.50;1.42;;;16.10;99.90;;;;;;5012823;28;20211;-81
2022/07/10 07:02:52;;;;;;;6.60;1.45;;;16.10;99.90;;;;;;5019306;28;20218;-82
2022/07/10 07:05:20;;;;;;;3.28;1.33;;;16.00;99.90;;;;;;5012369;28;20220;-82
2022/07/10 07:07:47;;;;;;;4.60;1.63;;;16.10;99.90;;;;;;5019123;28;20198;-82
2022/07/10 07:10:15;;;;;;;2.28;1.10;;;16.10;99.90;;;;;;5013597;28;20200;-82
2022/07/10 07:12:42;;;;;;;4.70;1.15;;;16.10;99.90;;;;;;5018950;28;20200;-82
2022/07/10 07:15:10;;;;;;;3.60;1.50;;;16.10;99.90;;;;;;5028282;28;20237;-82
2022/07/10 07:17:56;;;;;;;5.53;1.35;;;16.10;99.90;;;;;;5019349;28;20202;-82
2022/07/10 07:23:12;;;;;;;5.07;1.20;;;16.20;99.90;;;;;;5021947;28;20211;-81
2022/07/10 07:25:41;;;;;;;5.28;1.35;;;16.00;99.90;;;;;;5019408;28;20215;-82
2022/07/10 07:28:10;;;;;;;6.93;1.25;;;16.10;99.90;;;;;;4994238;28;20211;-82
2022/07/10 07:30:37;;;;;;;4.88;1.40;;;16.20;99.90;;;;;;5014141;28;20196;-82
2022/07/10 07:33:05;;;;;;;5.80;1.45;;;16.00;99.90;;;;;;5012311;28;20200;-81
2022/07/10 07:35:36;;;;;;;8.77;1.48;;;16.00;99.90;;;;;;5021968;28;20223;-82
2022/07/10 07:38:05;;;;;;;3.08;1.42;;;16.00;99.90;;;;;;5007437;28;20201;-81
2022/07/10 07:40:33;;;;;;;7.40;2.03;;;16.00;99.90;;;;;;5019343;28;20203;-81
2022/07/10 07:43:01;;;;;;;2.85;1.25;;;16.00;99.90;;;;;;5009952;28;20211;-82
2022/07/10 07:45:28;;;;;;;5.32;1.40;;;15.90;99.90;;;;;;5019475;28;20215;-82
2022/07/10 07:47:59;;;;;;;5.13;1.50;;;15.80;99.90;;;;;;5007624;28;20208;-81
2022/07/10 07:50:29;;;;;;;5.13;1.35;;;15.80;99.90;;;;;;5020223;28;20210;-82
2022/07/10 07:52:57;;;;;;;5.88;1.50;;;16.00;99.90;;;;;;5021320;28;20196;-82
2022/07/10 07:55:25;;;;;;;5.78;1.30;;;15.80;99.90;;;;;;5013002;28;20220;-81
2022/07/10 07:57:54;;;;;;;5.28;1.30;;;15.70;99.90;;;;;;5007541;28;20208;-81
2022/07/10 08:00:23;;;;;;;4.40;1.60;;;15.90;99.90;;;;;;5014323;28;20197;-81
2022/07/10 08:02:51;;;;;;;4.28;1.65;;;15.60;99.90;;;;;;5014724;28;20197;-81
2022/07/10 08:05:20;;;;;;;4.18;1.30;;;15.70;99.90;;;;;;5018853;28;20226;-81
2022/07/10 08:07:49;;;;;;;3.08;1.45;;;15.70;99.90;;;;;;5023600;28;20638;-81
2022/07/10 08:10:19;;;;;;;4.47;1.23;;;15.70;99.90;;;;;;5015854;28;20205;-81
2022/07/10 08:12:48;;;;;;;4.10;1.60;;;15.70;99.90;;;;;;5006181;28;20215;-82
2022/07/10 08:15:16;;;;;;;3.83;1.33;;;15.80;99.90;;;;;;5013511;28;20232;-81
2022/07/10 08:17:44;;;;;;;4.32;1.10;;;15.80;99.90;;;;;;5021094;28;20202;-82
2022/07/10 08:20:13;;;;;;;3.05;1.27;;;15.80;99.90;;;;;;5028971;28;20223;-81
2022/07/10 08:22:41;;;;;;;3.67;1.60;;;15.90;99.90;;;;;;5028496;28;20654;-82
2022/07/10 08:25:10;;;;;;;4.13;1.67;;;15.90;99.90;;;;;;5022846;28;20227;-82
2022/07/10 08:27:39;;;;;;;4.82;1.80;;;16.00;99.90;;;;;;4990276;28;20206;-82
2022/07/10 08:30:08;;;;;;;5.07;1.80;;;16.00;99.90;;;;;;5008200;28;20196;-81
2022/07/10 08:32:36;;;;;;;5.57;1.70;;;16.00;99.90;;;;;;4998420;28;20201;-82
2022/07/10 08:35:05;;;;;;;3.63;1.35;;;16.10;99.90;;;;;;5012685;28;20224;-81
2022/07/10 08:37:38;;;;;;;3.00;1.35;;;16.00;99.90;;;;;;5002173;28;20195;-82
2022/07/10 08:40:09;;;;;;;4.72;1.30;;;16.00;99.90;;;;;;5009362;28;20209;-82
2022/07/10 08:42:38;;;;;;;8.13;2.08;;;15.90;99.90;;;;;;5016049;28;20202;-82
2022/07/10 08:45:07;;;;;;;5.65;1.60;;;15.80;99.90;;;;;;5007715;28;20234;-82
2022/07/10 08:47:35;;;;;;;4.93;1.33;;;16.00;99.90;;;;;;5015473;28;20866;-82
2022/07/10 08:50:04;;;;;;;7.30;1.67;;;16.10;99.90;;;;;;5001095;28;20208;-82
2022/07/10 08:52:38;;;;;;;6.75;3.08;;;16.10;99.90;;;;;;5020011;28;20192;-82
2022/07/10 08:55:06;;;;;;;6.78;3.13;;;15.80;99.90;;;;;;5021457;28;20231;-82
2022/07/10 08:57:35;;;;;;;6.35;2.85;;;15.80;99.90;;;;;;5002943;28;20208;-82
2022/07/10 09:00:05;;;;;;;6.00;3.53;;;15.80;99.90;;;;;;5013450;28;20572;-82
2022/07/10 09:02:32;;;;;;;6.70;3.22;;;15.90;99.90;;;;;;5010327;28;20196;-82
2022/07/10 09:05:00;;;;;;;6.90;3.40;;;16.10;99.90;;;;;;5009142;28;20220;-82
2022/07/10 09:07:36;;;;;;;4.85;2.85;;;16.00;99.90;;;;;;5006541;28;20205;-82
2022/07/10 09:10:08;;;;;;;7.22;2.63;;;15.80;99.90;;;;;;5019717;28;20203;-82
2022/07/10 09:12:52;;;;;;;4.78;2.72;;;15.70;99.90;;;;;;5006304;28;20206;-82
2022/07/10 09:15:23;;;;;;;4.30;2.33;;;15.90;99.90;;;;;;5013518;28;20881;-82
2022/07/10 09:17:51;;;;;;;4.68;2.40;;;16.00;99.90;;;;;;5022097;28;20210;-82
2022/07/10 09:20:29;;;;;;;3.65;2.88;;;16.00;99.90;;;;;;5016071;28;20203;-82
2022/07/10 09:22:58;;;;;;;5.40;2.40;;;16.00;99.90;;;;;;5022935;28;20226;-82
2022/07/10 09:25:34;;;;;;;5.13;2.50;;;16.10;99.90;;;;;;5009251;28;20235;-82
2022/07/10 09:28:05;;;;;;;2.63;2.10;;;16.00;99.90;;;;;;5006522;28;20207;-82
2022/07/10 09:30:36;;;;;;;3.22;1.55;;;16.20;99.90;;;;;;5004970;28;20204;-82
2022/07/10 09:33:19;;;;;;;6.28;2.10;;;16.30;99.90;;;;;;5015597;28;20199;-82
2022/07/10 09:36:07;;;;;;;7.20;2.85;;;16.10;99.90;;;;;;5003877;28;20290;-82
2022/07/10 09:38:52;;;;;;;4.07;2.60;;;15.90;99.90;;;;;;5023043;28;20200;-82
2022/07/10 09:41:25;;;;;;;5.20;2.53;;;16.10;99.90;;;;;;5018835;28;20197;-82
2022/07/10 09:43:55;;;;;;;7.65;3.13;;;16.10;99.90;;;;;;5002252;28;20207;-82
2022/07/10 09:46:26;;;;;;;6.07;3.03;;;16.20;99.90;;;;;;5007952;28;20207;-82
2022/07/10 09:49:09;;;;;;;4.75;3.05;;;16.10;99.90;;;;;;5016628;28;20200;-82
2022/07/10 09:51:38;;;;;;;4.30;3.33;;;16.10;99.90;;;;;;4991262;28;20200;-82
2022/07/10 09:54:09;;;;;;;3.40;3.10;;;16.10;99.90;;;;;;5008913;28;20238;-82
2022/07/10 09:56:42;;;;;;;6.30;2.80;;;16.20;99.90;;;;;;4987955;28;20212;-82
2022/07/10 09:59:12;;;;;;;7.00;3.42;;;16.30;99.90;;;;;;5016353;28;20187;-82
2022/07/10 10:01:45;;;;;;;5.32;3.15;;;16.30;99.90;;;;;;5018072;28;20199;-82
2022/07/10 10:04:15;;;;;;;4.05;3.15;;;16.30;99.90;;;;;;5016797;28;20234;-82
2022/07/10 10:06:43;;;;;;;4.68;3.10;;;16.10;99.90;;;;;;5021612;28;20196;-82
2022/07/10 10:09:16;;;;;;;6.15;3.45;;;16.20;99.90;;;;;;5014454;28;20214;-82
2022/07/10 10:11:47;;;;;;;5.50;2.50;;;16.10;99.90;;;;;;5007772;28;20578;-81
2022/07/10 10:14:18;;;;;;;3.45;3.15;;;16.20;99.90;;;;;;5007400;28;20216;-82
2022/07/10 10:16:49;;;;;;;4.00;2.13;;;16.30;99.90;;;;;;5017790;28;20215;-82
2022/07/10 10:22:05;;;;;;;4.90;1.98;;;16.20;99.90;;;;;;5019448;28;20195;-82
2022/07/10 10:24:34;;;;;;;4.38;2.00;;;16.10;99.90;;;;;;5013727;28;20229;-82
2022/07/10 10:27:02;;;;;;;5.80;2.53;;;16.20;99.90;;;;;;4997753;28;20196;-82
2022/07/10 10:29:30;;;;;;;4.05;3.45;;;16.30;99.90;;;;;;5015529;28;20204;-82
2022/07/10 10:31:59;;;;;;;4.57;3.40;;;16.20;99.90;;;;;;5000795;28;20224;-82
2022/07/10 10:34:42;;;;;;;5.68;3.90;;;16.30;99.90;;;;;;5010414;28;20226;-82
2022/07/10 10:37:34;;;;;;;5.57;5.10;;;16.20;99.90;;;;;;5016281;28;20220;-82
2022/07/10 10:40:02;;;;;;;8.57;6.05;;;16.10;99.90;;;;;;4998288;28;20203;-82
2022/07/10 10:42:34;;;;;;;9.00;6.53;;;16.20;99.90;;;;;;5008366;28;20207;-82
2022/07/10 10:45:27;;;;;;;9.10;6.40;;;16.30;99.90;;;;;;5010865;28;20239;-82
2022/07/10 10:48:08;;;;;;;8.32;6.30;;;16.40;99.90;;;;;;5005688;28;20204;-82
2022/07/10 10:50:40;;;;;;;6.40;5.35;;;16.50;99.90;;;;;;5017345;28;20635;-82
2022/07/10 10:53:14;;;;;;;10.60;5.50;;;16.40;99.90;;;;;;5012793;28;20200;-82
2022/07/10 10:55:42;;;;;;;8.73;5.55;;;16.40;99.90;;;;;;5018751;28;20232;-82
2022/07/10 10:58:15;;;;;;;9.40;5.53;;;16.50;99.90;;;;;;5018618;28;20229;-82
2022/07/10 11:00:42;;;;;;;6.90;5.03;;;16.40;99.90;;;;;;5010863;28;20567;-82
2022/07/10 11:03:19;;;;;;;4.50;3.97;;;16.50;99.90;;;;;;5010621;28;20584;-82
2022/07/10 11:05:49;;;;;;;5.22;4.28;;;16.60;99.90;;;;;;5009175;28;20224;-82
2022/07/10 11:08:37;;;;;;;6.85;5.38;;;16.60;99.90;;;;;;5015229;28;20205;-82
2022/07/10 11:11:37;;;;;;;5.32;4.63;;;16.70;99.90;;;;;;5013309;28;20204;-82
2022/07/10 11:14:05;;;;;;;5.07;4.68;;;16.70;99.90;;;;;;5018639;28;20220;-82
2022/07/10 11:16:33;;;;;;;6.13;4.10;;;16.60;99.90;;;;;;5020418;28;20211;-82
2022/07/10 11:19:03;;;;;;;4.70;4.07;;;16.60;99.90;;;;;;5007512;28;20211;-82
2022/07/10 11:21:47;;;;;;;4.43;3.83;;;16.70;99.90;;;;;;5020743;28;20193;-82
2022/07/10 11:24:33;;;;;;;5.32;4.10;;;16.80;99.90;;;;;;5015571;28;20230;-82
2022/07/10 11:27:15;;;;;;;5.20;4.63;;;16.80;99.90;;;;;;5007097;28;20205;-82
2022/07/10 11:29:47;;;;;;;5.10;4.60;;;16.90;99.90;;;;;;5000507;28;20196;-82
2022/07/10 11:32:17;;;;;;;5.43;4.30;;;17.00;99.90;;;;;;5003023;28;20204;-80
2022/07/10 11:34:46;;;;;;;6.25;4.40;;;16.90;99.90;;;;;;5010903;28;20215;-79
2022/07/10 11:37:17;;;;;;;6.65;5.80;;;16.80;99.90;;;;;;5008989;28;20219;-79
2022/07/10 11:39:44;;;;;;;5.93;5.43;;;16.70;99.90;;;;;;5017655;28;20204;-79
2022/07/10 11:42:12;;;;;;;5.78;5.28;;;16.80;99.90;;;;;;5018149;28;20196;-79
2022/07/10 11:44:39;;;;;;;4.85;4.45;;;17.00;99.90;;;;;;5010496;28;20583;-79
2022/07/10 11:47:07;;;;;;;8.05;5.32;;;17.00;99.90;;;;;;5005949;28;20207;-79
2022/07/10 11:49:35;;;;;;;4.80;4.25;;;17.00;99.90;;;;;;5017341;28;20207;-79
2022/07/10 11:52:05;;;;;;;4.43;4.03;;;17.00;99.90;;;;;;4999921;28;20200;-79
2022/07/10 11:54:33;;;;;;;4.15;3.75;;;17.10;99.90;;;;;;5009912;28;20595;-79
2022/07/10 11:57:08;;;;;;;3.90;3.28;;;17.20;99.90;;;;;;5008687;28;20218;-79
2022/07/10 11:59:35;;;;;;;3.00;2.70;;;17.20;99.90;;;;;;5018388;28;20209;-79
2022/07/10 12:02:03;;;;;;;3.20;2.90;;;16.90;99.90;;;;;;5016748;28;20209;-79
2022/07/10 12:04:32;;;;;;;2.83;2.42;;;16.80;99.90;;;;;;5026594;28;20227;-79
2022/07/10 12:07:00;;;;;;;3.53;2.40;;;16.80;99.90;;;;;;5016491;28;20552;-79
2022/07/10 12:09:28;;;;;;;4.40;2.70;;;16.90;99.90;;;;;;5011544;28;20563;-79
2022/07/10 12:12:00;;;;;;;2.50;2.30;;;17.20;99.90;;;;;;5017453;28;20215;-79
2022/07/10 12:14:28;;;;;;;1.98;1.75;;;17.30;99.90;;;;;;5027784;28;20234;-79
2022/07/10 12:16:57;;;;;;;1.80;1.63;;;17.20;99.90;;;;;;5012565;28;20223;-79
2022/07/10 12:19:27;;;;;;;1.10;1.00;;;17.30;99.90;;;;;;5021081;28;20199;-79
2022/07/10 12:21:55;;;;;;;1.15;1.05;;;17.20;99.90;;;;;;5016484;28;20214;-79
2022/07/10 12:24:23;;;;;;;0.80;0.80;;;17.00;99.90;;;;;;5014425;28;20226;-79
2022/07/10 12:26:55;;;;;;;0.80;0.80;;;17.00;99.90;;;;;;5013581;28;20202;-79
2022/07/10 12:29:24;;;;;;;1.85;1.00;;;17.00;99.90;;;;;;5018316;28;20563;-79
2022/07/10 12:31:54;;;;;;;0.90;0.90;;;16.90;99.90;;;;;;5014289;28;20215;-79
2022/07/10 12:34:34;;;;;;;1.35;1.17;;;17.20;99.90;;;;;;5016384;28;20224;-79
2022/07/10 12:37:08;;;;;;;1.15;1.00;;;17.30;99.90;;;;;;5020132;28;20222;-79
2022/07/10 12:39:38;;;;;;;1.13;1.02;;;17.50;99.90;;;;;;5012244;28;20203;-79
2022/07/10 12:42:08;;;;;;;1.40;1.30;;;17.80;99.90;;;;;;5003262;28;20228;-79
2022/07/10 12:44:40;;;;;;;2.75;1.42;;;18.10;99.90;;;;;;5002644;28;20226;-79
2022/07/10 12:47:11;;;;;;;1.50;1.40;;;18.40;99.90;;;;;;5001177;28;20573;-79
2022/07/10 12:49:56;;;;;;;2.33;1.63;;;18.60;99.90;;;;;;5013180;28;20194;-79
2022/07/10 12:52:28;;;;;;;1.95;1.60;;;18.60;99.90;;;;;;4996758;28;20229;-79
2022/07/10 12:55:10;;;;;;;2.33;1.90;;;18.20;99.90;;;;;;5000802;28;20235;-79
2022/07/10 12:57:50;;;;;;;2.58;1.67;;;17.90;99.90;;;;;;5004397;28;20212;-79
2022/07/10 13:00:20;;;;;;;3.22;1.50;;;17.60;99.90;;;;;;4994544;28;20215;-79
2022/07/10 13:02:50;;;;;;;1.95;1.55;;;17.40;99.90;;;;;;4994831;28;20211;-79
2022/07/10 13:05:28;;;;;;;2.10;1.63;;;17.50;99.90;;;;;;4998748;28;20736;-79
2022/07/10 13:08:11;;;;;;;2.08;1.80;;;18.00;99.90;;;;;;5006210;28;20199;-79